sensor_id;sensor_type;location;lat;lon;timestamp;temperature;humidity
23267;DHT22;11802;53.160;8.214;2023-02-10T00:01:27;3.10;99.90
23267;DHT22;11802;53.160;8.214;2023-02-10T00:03:54;2.90;99.90
23267;DHT22;11802;53.160;8.214;2023-02-10T00:06:20;2.90;99.90
23267;DHT22;11802;53.160;8.214;2023-02-10T00:08:48;2.80;99.90
23267;DHT22;11802;53.160;8.214;2023-02-10T00:11:14;2.70;99.90
23267;DHT22;11802;53.160;8.214;2023-02-10T00:13:41;2.60;99.90
23267;DHT22;11802;53.160;8.214;2023-02-10T00:16:09;2.60;99.90
23267;DHT22;11802;53.160;8.214;2023-02-10T00:18:35;2.50;99.90
23267;DHT22;11802;53.160;8.214;2023-02-10T00:21:14;2.40;99.90
23267;DHT22;11802;53.160;8.214;2023-02-10T00:23:40;2.40;99.90
23267;DHT22;11802;53.160;8.214;2023-02-10T00:26:07;2.40;99.90
23267;DHT22;11802;53.160;8.214;2023-02-10T00:28:34;2.40;99.90
23267;DHT22;11802;53.160;8.214;2023-02-10T00:31:05;2.40;99.90
23267;DHT22;11802;53.160;8.214;2023-02-10T00:33:31;2.40;99.90
23267;DHT22;11802;53.160;8.214;2023-02-10T00:35:57;2.50;99.90
23267;DHT22;11802;53.160;8.214;2023-02-10T00:38:22;2.50;99.90
23267;DHT22;11802;53.160;8.214;2023-02-10T00:40:48;2.60;99.90
23267;DHT22;11802;53.160;8.214;2023-02-10T00:43:13;2.70;99.90
23267;DHT22;11802;53.160;8.214;2023-02-10T00:45:39;2.70;99.90
23267;DHT22;11802;53.160;8.214;2023-02-10T00:48:04;2.70;99.90
23267;DHT22;11802;53.160;8.214;2023-02-10T00:50:30;2.70;99.90
23267;DHT22;11802;53.160;8.214;2023-02-10T00:52:55;2.60;99.90
23267;DHT22;11802;53.160;8.214;2023-02-10T00:55:21;2.50;99.90
23267;DHT22;11802;53.160;8.214;2023-02-10T00:57:46;2.40;99.90
23267;DHT22;11802;53.160;8.214;2023-02-10T01:00:12;2.40;99.90
23267;DHT22;11802;53.160;8.214;2023-02-10T01:02:38;2.30;99.90
23267;DHT22;11802;53.160;8.214;2023-02-10T01:05:04;2.20;99.90
23267;DHT22;11802;53.160;8.214;2023-02-10T01:07:29;2.10;99.90
23267;DHT22;11802;53.160;8.214;2023-02-10T01:09:55;2.00;99.90
23267;DHT22;11802;53.160;8.214;2023-02-10T01:12:21;2.00;99.90
23267;DHT22;11802;53.160;8.214;2023-02-10T01:14:46;1.90;99.90
23267;DHT22;11802;53.160;8.214;2023-02-10T01:17:12;1.80;99.90
23267;DHT22;11802;53.160;8.214;2023-02-10T01:19:37;1.80;99.90
23267;DHT22;11802;53.160;8.214;2023-02-10T01:22:03;1.80;99.90
23267;DHT22;11802;53.160;8.214;2023-02-10T01:24:28;1.80;99.90
23267;DHT22;11802;53.160;8.214;2023-02-10T01:26:54;1.80;99.90
23267;DHT22;11802;53.160;8.214;2023-02-10T01:29:20;1.70;99.90
23267;DHT22;11802;53.160;8.214;2023-02-10T01:31:45;1.70;99.90
23267;DHT22;11802;53.160;8.214;2023-02-10T01:34:11;1.70;99.90
23267;DHT22;11802;53.160;8.214;2023-02-10T01:36:37;1.70;99.90
23267;DHT22;11802;53.160;8.214;2023-02-10T01:39:02;1.70;99.90
23267;DHT22;11802;53.160;8.214;2023-02-10T01:41:28;1.60;99.90
23267;DHT22;11802;53.160;8.214;2023-02-10T01:44:55;1.60;99.90
23267;DHT22;11802;53.160;8.214;2023-02-10T01:46:51;1.60;99.90
23267;DHT22;11802;53.160;8.214;2023-02-10T01:49:20;1.60;99.90
23267;DHT22;11802;53.160;8.214;2023-02-10T01:51:58;1.50;99.90
23267;DHT22;11802;53.160;8.214;2023-02-10T01:54:30;1.60;99.90
23267;DHT22;11802;53.160;8.214;2023-02-10T01:56:58;1.60;99.90
23267;DHT22;11802;53.160;8.214;2023-02-10T01:59:26;1.50;99.90
23267;DHT22;11802;53.160;8.214;2023-02-10T02:01:52;1.50;99.90
23267;DHT22;11802;53.160;8.214;2023-02-10T02:04:18;1.40;99.90
23267;DHT22;11802;53.160;8.214;2023-02-10T02:06:44;1.40;99.90
23267;DHT22;11802;53.160;8.214;2023-02-10T02:09:11;1.40;99.90
23267;DHT22;11802;53.160;8.214;2023-02-10T02:11:49;1.40;99.90
23267;DHT22;11802;53.160;8.214;2023-02-10T02:14:21;1.40;99.90
23267;DHT22;11802;53.160;8.214;2023-02-10T02:16:52;1.30;99.90
23267;DHT22;11802;53.160;8.214;2023-02-10T02:23:04;1.40;99.90
23267;DHT22;11802;53.160;8.214;2023-02-10T02:28:35;1.30;99.90
23267;DHT22;11802;53.160;8.214;2023-02-10T02:36:29;1.20;99.90
23267;DHT22;11802;53.160;8.214;2023-02-10T02:39:01;1.20;99.90
23267;DHT22;11802;53.160;8.214;2023-02-10T02:41:28;1.20;99.90
23267;DHT22;11802;53.160;8.214;2023-02-10T02:43:57;1.20;99.90
23267;DHT22;11802;53.160;8.214;2023-02-10T02:46:38;1.20;99.90
23267;DHT22;11802;53.160;8.214;2023-02-10T02:49:26;1.20;99.90
23267;DHT22;11802;53.160;8.214;2023-02-10T02:52:00;1.20;99.90
23267;DHT22;11802;53.160;8.214;2023-02-10T02:54:42;1.20;99.90
23267;DHT22;11802;53.160;8.214;2023-02-10T02:57:25;1.20;99.90
23267;DHT22;11802;53.160;8.214;2023-02-10T03:00:07;1.20;99.90
23267;DHT22;11802;53.160;8.214;2023-02-10T03:02:35;1.10;99.90
23267;DHT22;11802;53.160;8.214;2023-02-10T03:05:02;1.10;99.90
23267;DHT22;11802;53.160;8.214;2023-02-10T03:07:28;1.20;99.90
23267;DHT22;11802;53.160;8.214;2023-02-10T03:09:53;1.20;99.90
23267;DHT22;11802;53.160;8.214;2023-02-10T03:12:19;1.20;99.90
23267;DHT22;11802;53.160;8.214;2023-02-10T03:14:45;1.20;99.90
23267;DHT22;11802;53.160;8.214;2023-02-10T03:17:11;1.20;99.90
23267;DHT22;11802;53.160;8.214;2023-02-10T03:19:36;1.20;99.90
23267;DHT22;11802;53.160;8.214;2023-02-10T03:22:02;1.20;99.90
23267;DHT22;11802;53.160;8.214;2023-02-10T03:24:28;1.20;99.90
23267;DHT22;11802;53.160;8.214;2023-02-10T03:26:53;1.20;99.90
23267;DHT22;11802;53.160;8.214;2023-02-10T03:29:19;1.30;99.90
23267;DHT22;11802;53.160;8.214;2023-02-10T03:31:44;1.30;99.90
23267;DHT22;11802;53.160;8.214;2023-02-10T03:34:10;1.30;99.90
23267;DHT22;11802;53.160;8.214;2023-02-10T03:36:35;1.30;99.90
23267;DHT22;11802;53.160;8.214;2023-02-10T03:39:02;1.30;99.90
23267;DHT22;11802;53.160;8.214;2023-02-10T03:41:28;1.30;99.90
23267;DHT22;11802;53.160;8.214;2023-02-10T03:43:54;1.20;99.90
23267;DHT22;11802;53.160;8.214;2023-02-10T03:46:19;1.20;99.90
23267;DHT22;11802;53.160;8.214;2023-02-10T03:48:46;1.30;99.90
23267;DHT22;11802;53.160;8.214;2023-02-10T03:51:12;1.30;99.90
23267;DHT22;11802;53.160;8.214;2023-02-10T03:53:37;1.30;99.90
23267;DHT22;11802;53.160;8.214;2023-02-10T03:56:03;1.30;99.90
23267;DHT22;11802;53.160;8.214;2023-02-10T03:58:29;1.30;99.90
23267;DHT22;11802;53.160;8.214;2023-02-10T04:00:55;1.30;99.90
23267;DHT22;11802;53.160;8.214;2023-02-10T04:03:20;1.30;99.90
23267;DHT22;11802;53.160;8.214;2023-02-10T04:05:46;1.30;99.90
23267;DHT22;11802;53.160;8.214;2023-02-10T04:08:11;1.30;99.90
23267;DHT22;11802;53.160;8.214;2023-02-10T04:10:37;1.30;99.90
23267;DHT22;11802;53.160;8.214;2023-02-10T04:13:03;1.30;99.90
23267;DHT22;11802;53.160;8.214;2023-02-10T04:15:29;1.30;99.90
23267;DHT22;11802;53.160;8.214;2023-02-10T04:17:54;1.30;99.90
23267;DHT22;11802;53.160;8.214;2023-02-10T04:20:22;1.30;99.90
23267;DHT22;11802;53.160;8.214;2023-02-10T04:22:48;1.30;99.90
23267;DHT22;11802;53.160;8.214;2023-02-10T04:25:14;1.30;99.90
23267;DHT22;11802;53.160;8.214;2023-02-10T04:27:39;1.20;99.90
23267;DHT22;11802;53.160;8.214;2023-02-10T04:30:06;1.20;99.90
23267;DHT22;11802;53.160;8.214;2023-02-10T04:32:32;1.30;99.90
23267;DHT22;11802;53.160;8.214;2023-02-10T04:34:58;1.20;99.90
23267;DHT22;11802;53.160;8.214;2023-02-10T04:37:23;1.20;99.90
23267;DHT22;11802;53.160;8.214;2023-02-10T04:39:49;1.10;99.90
23267;DHT22;11802;53.160;8.214;2023-02-10T04:42:14;1.10;99.90
23267;DHT22;11802;53.160;8.214;2023-02-10T04:44:40;1.10;99.90
23267;DHT22;11802;53.160;8.214;2023-02-10T04:47:05;1.20;99.90
23267;DHT22;11802;53.160;8.214;2023-02-10T04:49:31;1.20;99.90
23267;DHT22;11802;53.160;8.214;2023-02-10T04:51:56;1.20;99.90
23267;DHT22;11802;53.160;8.214;2023-02-10T04:54:22;1.10;99.90
23267;DHT22;11802;53.160;8.214;2023-02-10T04:56:47;1.10;99.90
23267;DHT22;11802;53.160;8.214;2023-02-10T04:59:13;1.10;99.90
23267;DHT22;11802;53.160;8.214;2023-02-10T05:01:39;1.00;99.90
23267;DHT22;11802;53.160;8.214;2023-02-10T05:04:04;1.00;99.90
23267;DHT22;11802;53.160;8.214;2023-02-10T05:06:30;1.00;99.90
23267;DHT22;11802;53.160;8.214;2023-02-10T05:08:55;1.00;99.90
23267;DHT22;11802;53.160;8.214;2023-02-10T05:11:21;1.00;99.90
23267;DHT22;11802;53.160;8.214;2023-02-10T05:13:47;1.00;99.90
23267;DHT22;11802;53.160;8.214;2023-02-10T05:16:13;1.00;99.90
23267;DHT22;11802;53.160;8.214;2023-02-10T05:18:39;1.00;99.90
23267;DHT22;11802;53.160;8.214;2023-02-10T05:21:06;1.00;99.90
23267;DHT22;11802;53.160;8.214;2023-02-10T05:23:34;1.00;99.90
23267;DHT22;11802;53.160;8.214;2023-02-10T05:26:00;1.10;99.90
23267;DHT22;11802;53.160;8.214;2023-02-10T05:28:25;1.10;99.90
23267;DHT22;11802;53.160;8.214;2023-02-10T05:30:51;1.00;99.90
23267;DHT22;11802;53.160;8.214;2023-02-10T05:33:16;1.00;99.90
23267;DHT22;11802;53.160;8.214;2023-02-10T05:35:42;1.00;99.90
23267;DHT22;11802;53.160;8.214;2023-02-10T05:38:08;1.00;99.90
23267;DHT22;11802;53.160;8.214;2023-02-10T05:40:33;0.90;99.90
23267;DHT22;11802;53.160;8.214;2023-02-10T05:42:59;1.00;99.90
23267;DHT22;11802;53.160;8.214;2023-02-10T05:45:25;1.00;99.90
23267;DHT22;11802;53.160;8.214;2023-02-10T05:47:50;0.90;99.90
23267;DHT22;11802;53.160;8.214;2023-02-10T05:50:17;0.90;99.90
23267;DHT22;11802;53.160;8.214;2023-02-10T05:52:43;0.90;99.90
23267;DHT22;11802;53.160;8.214;2023-02-10T05:55:08;1.00;99.90
23267;DHT22;11802;53.160;8.214;2023-02-10T05:57:34;1.00;99.90
23267;DHT22;11802;53.160;8.214;2023-02-10T05:59:59;0.90;99.90
23267;DHT22;11802;53.160;8.214;2023-02-10T06:02:25;0.90;99.90
23267;DHT22;11802;53.160;8.214;2023-02-10T06:04:50;0.90;99.90
23267;DHT22;11802;53.160;8.214;2023-02-10T06:07:16;0.90;99.90
23267;DHT22;11802;53.160;8.214;2023-02-10T06:09:42;0.90;99.90
23267;DHT22;11802;53.160;8.214;2023-02-10T06:12:08;0.90;99.90
23267;DHT22;11802;53.160;8.214;2023-02-10T06:14:34;0.90;99.90
23267;DHT22;11802;53.160;8.214;2023-02-10T06:17:00;0.80;99.90
23267;DHT22;11802;53.160;8.214;2023-02-10T06:19:26;0.90;99.90
23267;DHT22;11802;53.160;8.214;2023-02-10T06:21:52;0.90;99.90
23267;DHT22;11802;53.160;8.214;2023-02-10T06:24:17;0.80;99.90
23267;DHT22;11802;53.160;8.214;2023-02-10T06:26:43;0.80;99.90
23267;DHT22;11802;53.160;8.214;2023-02-10T06:29:08;0.90;99.90
23267;DHT22;11802;53.160;8.214;2023-02-10T06:31:34;0.80;99.90
23267;DHT22;11802;53.160;8.214;2023-02-10T06:33:59;0.90;99.90
23267;DHT22;11802;53.160;8.214;2023-02-10T06:36:25;0.90;99.90
23267;DHT22;11802;53.160;8.214;2023-02-10T06:38:50;0.90;99.90
23267;DHT22;11802;53.160;8.214;2023-02-10T06:41:16;0.90;99.90
23267;DHT22;11802;53.160;8.214;2023-02-10T06:43:41;1.00;99.90
23267;DHT22;11802;53.160;8.214;2023-02-10T06:46:08;0.90;99.90
23267;DHT22;11802;53.160;8.214;2023-02-10T06:48:33;0.90;99.90
23267;DHT22;11802;53.160;8.214;2023-02-10T06:50:59;1.00;99.90
23267;DHT22;11802;53.160;8.214;2023-02-10T06:53:24;1.00;99.90
23267;DHT22;11802;53.160;8.214;2023-02-10T06:55:50;1.00;99.90
23267;DHT22;11802;53.160;8.214;2023-02-10T06:58:16;1.00;99.90
23267;DHT22;11802;53.160;8.214;2023-02-10T07:00:42;1.10;99.90
23267;DHT22;11802;53.160;8.214;2023-02-10T07:03:07;1.00;99.90
23267;DHT22;11802;53.160;8.214;2023-02-10T07:05:33;1.00;99.90
23267;DHT22;11802;53.160;8.214;2023-02-10T07:08:01;1.00;99.90
23267;DHT22;11802;53.160;8.214;2023-02-10T07:10:31;1.10;99.90
23267;DHT22;11802;53.160;8.214;2023-02-10T07:12:57;1.10;99.90
23267;DHT22;11802;53.160;8.214;2023-02-10T07:15:23;1.10;99.90
23267;DHT22;11802;53.160;8.214;2023-02-10T07:17:50;1.10;99.90
23267;DHT22;11802;53.160;8.214;2023-02-10T07:20:19;1.10;99.90
23267;DHT22;11802;53.160;8.214;2023-02-10T07:22:45;1.10;99.90
23267;DHT22;11802;53.160;8.214;2023-02-10T07:25:11;1.20;99.90
23267;DHT22;11802;53.160;8.214;2023-02-10T07:27:36;1.10;99.90
23267;DHT22;11802;53.160;8.214;2023-02-10T07:30:02;1.20;99.90
23267;DHT22;11802;53.160;8.214;2023-02-10T07:32:28;1.20;99.90
23267;DHT22;11802;53.160;8.214;2023-02-10T07:34:54;1.30;99.90
23267;DHT22;11802;53.160;8.214;2023-02-10T07:37:19;1.40;99.90
23267;DHT22;11802;53.160;8.214;2023-02-10T07:39:45;1.40;99.90
23267;DHT22;11802;53.160;8.214;2023-02-10T07:42:10;1.50;99.90
23267;DHT22;11802;53.160;8.214;2023-02-10T07:44:36;1.50;99.90
23267;DHT22;11802;53.160;8.214;2023-02-10T07:47:02;1.60;99.90
23267;DHT22;11802;53.160;8.214;2023-02-10T07:49:28;1.70;99.90
23267;DHT22;11802;53.160;8.214;2023-02-10T07:51:55;1.80;99.90
23267;DHT22;11802;53.160;8.214;2023-02-10T07:54:21;2.00;99.90
23267;DHT22;11802;53.160;8.214;2023-02-10T07:56:47;2.20;99.90
23267;DHT22;11802;53.160;8.214;2023-02-10T07:59:12;2.40;99.90
23267;DHT22;11802;53.160;8.214;2023-02-10T08:01:40;2.50;99.90
23267;DHT22;11802;53.160;8.214;2023-02-10T08:04:09;2.80;99.90
23267;DHT22;11802;53.160;8.214;2023-02-10T08:06:35;3.10;99.90
23267;DHT22;11802;53.160;8.214;2023-02-10T08:09:01;3.60;99.90
23267;DHT22;11802;53.160;8.214;2023-02-10T08:11:27;4.00;99.90
23267;DHT22;11802;53.160;8.214;2023-02-10T08:13:52;4.30;99.90
23267;DHT22;11802;53.160;8.214;2023-02-10T08:16:18;4.40;99.90
23267;DHT22;11802;53.160;8.214;2023-02-10T08:18:43;4.50;99.90
23267;DHT22;11802;53.160;8.214;2023-02-10T08:21:09;4.50;99.90
23267;DHT22;11802;53.160;8.214;2023-02-10T08:23:35;4.50;99.90
23267;DHT22;11802;53.160;8.214;2023-02-10T08:26:08;4.60;99.90
23267;DHT22;11802;53.160;8.214;2023-02-10T08:28:35;4.80;99.90
23267;DHT22;11802;53.160;8.214;2023-02-10T08:31:03;5.10;99.90
23267;DHT22;11802;53.160;8.214;2023-02-10T08:33:29;5.20;99.90
23267;DHT22;11802;53.160;8.214;2023-02-10T08:35:56;5.50;99.90
23267;DHT22;11802;53.160;8.214;2023-02-10T08:38:22;5.80;99.90
23267;DHT22;11802;53.160;8.214;2023-02-10T08:40:55;6.20;99.90
23267;DHT22;11802;53.160;8.214;2023-02-10T08:43:21;6.40;99.90
23267;DHT22;11802;53.160;8.214;2023-02-10T08:45:46;6.90;99.90
23267;DHT22;11802;53.160;8.214;2023-02-10T08:48:12;7.20;99.90
23267;DHT22;11802;53.160;8.214;2023-02-10T08:50:37;7.70;99.90
23267;DHT22;11802;53.160;8.214;2023-02-10T08:53:03;7.90;99.90
23267;DHT22;11802;53.160;8.214;2023-02-10T08:55:29;8.00;99.90
23267;DHT22;11802;53.160;8.214;2023-02-10T08:57:54;8.20;99.90
23267;DHT22;11802;53.160;8.214;2023-02-10T09:00:20;8.10;99.90
23267;DHT22;11802;53.160;8.214;2023-02-10T09:02:48;8.40;99.90
23267;DHT22;11802;53.160;8.214;2023-02-10T09:05:14;8.60;97.50
23267;DHT22;11802;53.160;8.214;2023-02-10T09:07:40;8.90;1.00
23267;DHT22;11802;53.160;8.214;2023-02-10T09:10:06;9.20;1.00
23267;DHT22;11802;53.160;8.214;2023-02-10T09:12:35;9.40;1.00
23267;DHT22;11802;53.160;8.214;2023-02-10T09:15:00;9.50;1.00
23267;DHT22;11802;53.160;8.214;2023-02-10T09:17:26;9.80;1.00
23267;DHT22;11802;53.160;8.214;2023-02-10T09:19:51;10.00;99.90
23267;DHT22;11802;53.160;8.214;2023-02-10T09:22:17;10.20;1.00
23267;DHT22;11802;53.160;8.214;2023-02-10T09:24:42;10.00;99.90
23267;DHT22;11802;53.160;8.214;2023-02-10T09:27:12;9.30;99.90
23267;DHT22;11802;53.160;8.214;2023-02-10T09:29:37;9.40;1.00
23267;DHT22;11802;53.160;8.214;2023-02-10T09:32:03;9.30;1.00
23267;DHT22;11802;53.160;8.214;2023-02-10T09:34:28;9.50;1.00
23267;DHT22;11802;53.160;8.214;2023-02-10T09:36:55;9.50;1.00
23267;DHT22;11802;53.160;8.214;2023-02-10T09:39:22;9.60;1.00
23267;DHT22;11802;53.160;8.214;2023-02-10T09:44:30;9.40;1.00
23267;DHT22;11802;53.160;8.214;2023-02-10T09:47:13;9.10;1.00
23267;DHT22;11802;53.160;8.214;2023-02-10T09:53:01;8.40;1.00
23267;DHT22;11802;53.160;8.214;2023-02-10T09:55:36;7.80;1.00
23267;DHT22;11802;53.160;8.214;2023-02-10T10:00:45;7.90;62.00
23267;DHT22;11802;53.160;8.214;2023-02-10T10:03:16;7.70;62.20
23267;DHT22;11802;53.160;8.214;2023-02-10T10:05:54;7.70;56.40
23267;DHT22;11802;53.160;8.214;2023-02-10T10:09:13;7.50;57.90
23267;DHT22;11802;53.160;8.214;2023-02-10T10:14:04;7.50;99.90
23267;DHT22;11802;53.160;8.214;2023-02-10T10:23:12;7.80;94.10
23267;DHT22;11802;53.160;8.214;2023-02-10T10:33:40;7.90;44.40
23267;DHT22;11802;53.160;8.214;2023-02-10T10:36:15;7.60;45.80
23267;DHT22;11802;53.160;8.214;2023-02-10T10:38:46;7.60;99.90
23267;DHT22;11802;53.160;8.214;2023-02-10T10:41:14;7.60;94.70
23267;DHT22;11802;53.160;8.214;2023-02-10T10:43:49;7.70;92.60
23267;DHT22;11802;53.160;8.214;2023-02-10T10:48:44;8.00;74.10
23267;DHT22;11802;53.160;8.214;2023-02-10T10:51:11;8.30;99.90
23267;DHT22;11802;53.160;8.214;2023-02-10T10:53:43;8.60;21.60
23267;DHT22;11802;53.160;8.214;2023-02-10T10:56:49;8.90;1.00
23267;DHT22;11802;53.160;8.214;2023-02-10T10:59:20;8.90;1.00
23267;DHT22;11802;53.160;8.214;2023-02-10T11:01:47;8.90;1.00
23267;DHT22;11802;53.160;8.214;2023-02-10T11:04:20;9.00;1.00
23267;DHT22;11802;53.160;8.214;2023-02-10T11:06:52;9.20;1.00
23267;DHT22;11802;53.160;8.214;2023-02-10T11:09:26;9.30;1.00
23267;DHT22;11802;53.160;8.214;2023-02-10T11:11:53;9.50;1.00
23267;DHT22;11802;53.160;8.214;2023-02-10T11:14:27;9.60;1.00
23267;DHT22;11802;53.160;8.214;2023-02-10T11:16:59;9.50;1.00
23267;DHT22;11802;53.160;8.214;2023-02-10T11:19:32;9.40;1.00
23267;DHT22;11802;53.160;8.214;2023-02-10T11:21:59;9.60;1.00
23267;DHT22;11802;53.160;8.214;2023-02-10T11:24:29;9.50;1.00
23267;DHT22;11802;53.160;8.214;2023-02-10T11:29:25;9.40;1.00
23267;DHT22;11802;53.160;8.214;2023-02-10T11:31:53;9.50;1.00
23267;DHT22;11802;53.160;8.214;2023-02-10T11:34:20;9.60;1.00
23267;DHT22;11802;53.160;8.214;2023-02-10T11:36:47;9.60;1.00
23267;DHT22;11802;53.160;8.214;2023-02-10T11:39:33;9.60;1.00
23267;DHT22;11802;53.160;8.214;2023-02-10T11:42:32;9.60;1.00
23267;DHT22;11802;53.160;8.214;2023-02-10T11:47:36;9.30;1.00
23267;DHT22;11802;53.160;8.214;2023-02-10T11:50:03;9.20;1.00
23267;DHT22;11802;53.160;8.214;2023-02-10T11:52:30;9.00;1.00
23267;DHT22;11802;53.160;8.214;2023-02-10T11:54:56;8.90;1.00
23267;DHT22;11802;53.160;8.214;2023-02-10T11:57:48;8.70;1.00
23267;DHT22;11802;53.160;8.214;2023-02-10T12:00:48;8.50;1.00
23267;DHT22;11802;53.160;8.214;2023-02-10T12:06:40;8.50;1.00
23267;DHT22;11802;53.160;8.214;2023-02-10T12:09:30;8.50;1.00
23267;DHT22;11802;53.160;8.214;2023-02-10T12:12:08;8.60;1.00
23267;DHT22;11802;53.160;8.214;2023-02-10T12:37:02;8.70;1.00
23267;DHT22;11802;53.160;8.214;2023-02-10T12:42:46;8.80;1.00
23267;DHT22;11802;53.160;8.214;2023-02-10T12:45:20;8.80;1.00
23267;DHT22;11802;53.160;8.214;2023-02-10T12:48:17;8.80;1.00
23267;DHT22;11802;53.160;8.214;2023-02-10T12:51:15;8.70;1.00
23267;DHT22;11802;53.160;8.214;2023-02-10T12:54:07;8.80;1.00
23267;DHT22;11802;53.160;8.214;2023-02-10T12:56:49;8.70;1.00
23267;DHT22;11802;53.160;8.214;2023-02-10T12:59:39;8.70;1.00
23267;DHT22;11802;53.160;8.214;2023-02-10T13:02:17;8.80;1.00
23267;DHT22;11802;53.160;8.214;2023-02-10T13:04:48;8.90;1.00
23267;DHT22;11802;53.160;8.214;2023-02-10T13:12:53;9.00;1.00
23267;DHT22;11802;53.160;8.214;2023-02-10T13:15:30;9.00;1.00
23267;DHT22;11802;53.160;8.214;2023-02-10T13:17:57;8.90;1.00
23267;DHT22;11802;53.160;8.214;2023-02-10T13:23:18;8.80;1.00
23267;DHT22;11802;53.160;8.214;2023-02-10T13:28:33;8.80;1.00
23267;DHT22;11802;53.160;8.214;2023-02-10T13:31:23;8.70;1.00
23267;DHT22;11802;53.160;8.214;2023-02-10T13:34:15;8.60;1.00
23267;DHT22;11802;53.160;8.214;2023-02-10T13:36:42;8.50;1.00
23267;DHT22;11802;53.160;8.214;2023-02-10T13:39:23;8.30;1.00
23267;DHT22;11802;53.160;8.214;2023-02-10T13:41:51;8.20;1.00
23267;DHT22;11802;53.160;8.214;2023-02-10T13:44:30;8.20;1.00
23267;DHT22;11802;53.160;8.214;2023-02-10T13:49:47;8.20;1.00
23267;DHT22;11802;53.160;8.214;2023-02-10T13:52:26;8.30;1.00
23267;DHT22;11802;53.160;8.214;2023-02-10T13:57:34;8.30;1.00
23267;DHT22;11802;53.160;8.214;2023-02-10T14:00:21;8.30;1.00
23267;DHT22;11802;53.160;8.214;2023-02-10T14:05:38;8.20;1.00
23267;DHT22;11802;53.160;8.214;2023-02-10T14:08:14;8.30;1.00
23267;DHT22;11802;53.160;8.214;2023-02-10T14:10:40;8.30;1.00
23267;DHT22;11802;53.160;8.214;2023-02-10T14:13:24;8.40;1.00
23267;DHT22;11802;53.160;8.214;2023-02-10T14:16:00;8.40;1.00
23267;DHT22;11802;53.160;8.214;2023-02-10T14:18:35;8.50;1.00
23267;DHT22;11802;53.160;8.214;2023-02-10T14:21:05;8.50;1.00
23267;DHT22;11802;53.160;8.214;2023-02-10T14:23:34;8.70;1.00
23267;DHT22;11802;53.160;8.214;2023-02-10T14:26:03;8.60;1.00
23267;DHT22;11802;53.160;8.214;2023-02-10T14:28:39;8.70;1.00
23267;DHT22;11802;53.160;8.214;2023-02-10T14:31:18;8.70;1.00
23267;DHT22;11802;53.160;8.214;2023-02-10T14:34:04;8.60;1.00
23267;DHT22;11802;53.160;8.214;2023-02-10T14:36:31;8.50;1.00
23267;DHT22;11802;53.160;8.214;2023-02-10T14:38:59;8.60;1.00
23267;DHT22;11802;53.160;8.214;2023-02-10T14:41:27;8.50;1.00
23267;DHT22;11802;53.160;8.214;2023-02-10T14:43:53;8.40;1.00
23267;DHT22;11802;53.160;8.214;2023-02-10T14:46:37;8.30;1.00
23267;DHT22;11802;53.160;8.214;2023-02-10T14:49:10;8.30;1.00
23267;DHT22;11802;53.160;8.214;2023-02-10T14:51:55;8.30;1.00
23267;DHT22;11802;53.160;8.214;2023-02-10T14:54:23;8.20;1.00
23267;DHT22;11802;53.160;8.214;2023-02-10T14:57:01;8.20;1.00
23267;DHT22;11802;53.160;8.214;2023-02-10T14:59:29;8.10;1.00
23267;DHT22;11802;53.160;8.214;2023-02-10T15:01:59;8.10;1.00
23267;DHT22;11802;53.160;8.214;2023-02-10T15:04:25;8.00;1.00
23267;DHT22;11802;53.160;8.214;2023-02-10T15:06:55;7.90;1.00
23267;DHT22;11802;53.160;8.214;2023-02-10T15:09:31;7.80;1.00
23267;DHT22;11802;53.160;8.214;2023-02-10T15:12:09;7.80;29.70
23267;DHT22;11802;53.160;8.214;2023-02-10T15:14:48;7.70;1.00
23267;DHT22;11802;53.160;8.214;2023-02-10T15:17:24;7.60;41.80
23267;DHT22;11802;53.160;8.214;2023-02-10T15:20:03;7.50;1.00
23267;DHT22;11802;53.160;8.214;2023-02-10T15:22:38;7.40;34.10
23267;DHT22;11802;53.160;8.214;2023-02-10T15:30:52;7.20;46.00
23267;DHT22;11802;53.160;8.214;2023-02-10T15:33:37;7.20;72.00
23267;DHT22;11802;53.160;8.214;2023-02-10T15:38:48;7.20;93.30
23267;DHT22;11802;53.160;8.214;2023-02-10T15:41:36;7.20;93.80
23267;DHT22;11802;53.160;8.214;2023-02-10T15:46:47;7.10;91.90
23267;DHT22;11802;53.160;8.214;2023-02-10T15:49:15;6.90;83.40
23267;DHT22;11802;53.160;8.214;2023-02-10T15:51:45;6.90;98.20
23267;DHT22;11802;53.160;8.214;2023-02-10T15:54:14;6.90;92.50
23267;DHT22;11802;53.160;8.214;2023-02-10T15:56:40;6.80;93.30
23267;DHT22;11802;53.160;8.214;2023-02-10T15:59:14;6.70;98.60
23267;DHT22;11802;53.160;8.214;2023-02-10T16:01:40;6.70;99.90
23267;DHT22;11802;53.160;8.214;2023-02-10T16:04:05;6.60;99.70
23267;DHT22;11802;53.160;8.214;2023-02-10T16:06:31;6.50;99.90
23267;DHT22;11802;53.160;8.214;2023-02-10T16:08:57;6.50;99.90
23267;DHT22;11802;53.160;8.214;2023-02-10T16:11:22;6.40;99.90
23267;DHT22;11802;53.160;8.214;2023-02-10T16:13:49;6.30;99.90
23267;DHT22;11802;53.160;8.214;2023-02-10T16:16:15;6.20;99.90
23267;DHT22;11802;53.160;8.214;2023-02-10T16:18:42;6.20;99.90
23267;DHT22;11802;53.160;8.214;2023-02-10T16:21:11;6.20;99.90
23267;DHT22;11802;53.160;8.214;2023-02-10T16:23:39;6.10;99.90
23267;DHT22;11802;53.160;8.214;2023-02-10T16:26:05;6.00;99.90
23267;DHT22;11802;53.160;8.214;2023-02-10T16:28:30;6.00;99.90
23267;DHT22;11802;53.160;8.214;2023-02-10T16:30:56;6.00;99.90
23267;DHT22;11802;53.160;8.214;2023-02-10T16:33:21;6.00;99.90
23267;DHT22;11802;53.160;8.214;2023-02-10T16:35:47;5.90;99.90
23267;DHT22;11802;53.160;8.214;2023-02-10T16:38:12;5.90;99.90
23267;DHT22;11802;53.160;8.214;2023-02-10T16:40:38;5.80;99.90
23267;DHT22;11802;53.160;8.214;2023-02-10T16:43:05;5.80;99.90
23267;DHT22;11802;53.160;8.214;2023-02-10T16:45:32;5.80;99.90
23267;DHT22;11802;53.160;8.214;2023-02-10T16:47:59;5.70;99.90
23267;DHT22;11802;53.160;8.214;2023-02-10T16:50:31;5.70;99.90
23267;DHT22;11802;53.160;8.214;2023-02-10T16:52:56;5.60;99.90
23267;DHT22;11802;53.160;8.214;2023-02-10T16:55:22;5.50;99.90
23267;DHT22;11802;53.160;8.214;2023-02-10T16:57:48;5.50;99.90
23267;DHT22;11802;53.160;8.214;2023-02-10T17:00:15;5.40;99.90
23267;DHT22;11802;53.160;8.214;2023-02-10T17:02:40;5.40;99.90
23267;DHT22;11802;53.160;8.214;2023-02-10T17:05:07;5.40;99.90
23267;DHT22;11802;53.160;8.214;2023-02-10T17:07:34;5.40;99.90
23267;DHT22;11802;53.160;8.214;2023-02-10T17:10:00;5.40;99.90
23267;DHT22;11802;53.160;8.214;2023-02-10T17:12:25;5.30;99.90
23267;DHT22;11802;53.160;8.214;2023-02-10T17:14:51;5.30;99.90
23267;DHT22;11802;53.160;8.214;2023-02-10T17:17:16;5.30;99.90
23267;DHT22;11802;53.160;8.214;2023-02-10T17:19:42;5.30;99.90
23267;DHT22;11802;53.160;8.214;2023-02-10T17:22:07;5.20;99.90
23267;DHT22;11802;53.160;8.214;2023-02-10T17:24:33;5.20;99.90
23267;DHT22;11802;53.160;8.214;2023-02-10T17:26:58;5.10;99.90
23267;DHT22;11802;53.160;8.214;2023-02-10T17:29:24;5.10;99.90
23267;DHT22;11802;53.160;8.214;2023-02-10T17:31:49;5.10;99.90
23267;DHT22;11802;53.160;8.214;2023-02-10T17:34:15;5.00;99.90
23267;DHT22;11802;53.160;8.214;2023-02-10T17:36:41;5.00;99.90
23267;DHT22;11802;53.160;8.214;2023-02-10T17:39:10;5.00;99.90
23267;DHT22;11802;53.160;8.214;2023-02-10T17:41:49;5.00;99.90
23267;DHT22;11802;53.160;8.214;2023-02-10T17:44:16;5.00;99.90
23267;DHT22;11802;53.160;8.214;2023-02-10T17:46:42;4.90;99.90